createdAt,value
2023-05-16T00:50:01.219Z,100.0
2023-05-16T03:00:01.224Z,100.0
2023-05-16T03:20:01.231Z,100.0
2023-05-16T03:40:01.219Z,100.0
2023-05-16T04:00:01.199Z,100.0
2023-05-16T04:10:01.253Z,100.0
2023-05-16T05:10:01.274Z,100.0
2023-05-16T06:40:01.251Z,100.0
2023-05-16T07:20:05.431Z,100.0
2023-05-16T09:00:01.274Z,100.0
2023-05-16T11:40:01.472Z,100.0
2023-05-16T12:00:01.241Z,100.0
2023-05-16T12:40:00.594Z,100.0
2023-05-16T13:00:01.255Z,84.6
2023-05-16T13:20:01.312Z,74.7
2023-05-16T13:40:01.191Z,65.0
2023-05-16T14:20:01.504Z,57.0
2023-05-16T14:40:01.193Z,54.9
2023-05-16T15:00:01.288Z,50.3
2023-05-16T15:20:01.286Z,42.0
2023-05-16T15:40:01.482Z,38.0
2023-05-16T16:00:01.246Z,39.7
2023-05-16T16:20:01.291Z,39.7
2023-05-16T16:40:01.381Z,37.5
2023-05-16T17:00:01.258Z,37.7
2023-05-16T17:20:01.236Z,37.4
2023-05-16T17:30:01.308Z,40.0
2023-05-16T17:40:01.326Z,42.3
2023-05-16T19:00:01.325Z,48.6
2023-05-16T19:20:01.594Z,48.6
2023-05-16T19:40:01.220Z,48.6
2023-05-16T20:00:01.307Z,48.6
2023-05-16T20:20:01.439Z,48.6
2023-05-16T20:40:01.340Z,48.6
2023-05-16T21:20:01.682Z,48.6
2023-05-16T21:40:01.253Z,48.6
2023-05-16T22:00:01.633Z,48.6
2023-05-16T22:20:01.303Z,48.6
2023-05-16T22:40:01.182Z,48.6
2023-05-16T23:00:01.319Z,48.6
2023-05-16T23:20:01.342Z,48.6
2023-05-16T23:40:01.252Z,48.6
